Captain Ed — WDF6338 — position and weather

sailwx.info

Track history (hours):
 
Tides and Currents Weather Stations Pressure Air Temp Water Temp Dewpoint Dewpoint Depression Visibility Wind Speed Wind Dir Waves Ship Positions

Captain Ed

Owner: Norfolk Dredging Company, Chesapeake, VA. More information available from US FCC via Universal Licensing System and Coast Guard Vessel Documentation Center.

Last reported at 2014-Nov-23 06:07 UTC. Time now 2014-Nov-27 21:57 UTC.
Position N 37°59' W 076°16'.

Length 22 m; draft 3 m.

Type: Tug. MMSI: 367473210.

Date/timePositionNaut miles runAvg speedWind from/ knotsBaromVisibWave heightAir tempDewpointWater temp
2014-Nov-23 06:07N 37°59' W 076°16'58 7.4
2014-Nov-22 22:21N 38°56' W 076°25'6 6.2
2014-Nov-22 21:22N 39°01' W 076°22'4 0.7
2014-Nov-22 15:22N 38°58' W 076°24'6 7.3
2014-Nov-22 14:30N 39°04' W 076°24'4 4.2
2014-Nov-22 13:33N 39°08' W 076°24'0 0.0
2014-Nov-22 12:06N 39°08' W 076°24'1 1.1
2014-Nov-22 11:33N 39°07' W 076°24'0 0.0
2014-Nov-22 10:30N 39°07' W 076°24'0 0.0
2014-Nov-22 09:12N 39°07' W 076°24'0 0.0
2014-Nov-22 08:33N 39°07' W 076°24'0 0.0
2014-Nov-22 07:33N 39°07' W 076°24'0 0.0
2014-Nov-22 06:33N 39°07' W 076°24'0 0.0
2014-Nov-22 05:34N 39°07' W 076°24'0 0.0
2014-Nov-22 04:34N 39°07' W 076°24'0 0.0
2014-Nov-22 03:33N 39°07' W 076°24'0 0.2
2014-Nov-22 01:31N 39°07' W 076°24'0 0.0
2014-Nov-22 00:30N 39°07' W 076°24'0 0.0
2014-Nov-21 23:10N 39°07' W 076°24'0 0.0
2014-Nov-21 19:18N 39°07' W 076°24'0 0.1
2014-Nov-21 13:27N 39°08' W 076°24'2 0.7
2014-Nov-21 11:26N 39°06' W 076°24'1 0.9
2014-Nov-21 10:12N 39°07' W 076°24'0 0.0
2014-Nov-21 06:32N 39°07' W 076°24'0 0.1
2014-Nov-21 03:15N 39°07' W 076°24'0 0.1
2014-Nov-21 00:27N 39°07' W 076°24'  
Track history (hours):
 
Tides and Currents Weather Stations Pressure Air Temp Water Temp Dewpoint Dewpoint Depression Visibility Wind Speed Wind Dir Waves Ship Positions

Captain Ed

Owner: Norfolk Dredging Company, Chesapeake, VA. More information available from US FCC via Universal Licensing System and Coast Guard Vessel Documentation Center.

Last reported at 2014-Nov-23 06:07 UTC. Time now 2014-Nov-27 21:57 UTC.
Position N 37°59' W 076°16'.

Length 22 m; draft 3 m.

Type: Tug. MMSI: 367473210.

Date/timePositionNaut miles runAvg speedWind from/ knotsBaromVisibWave heightAir tempDewpointWater temp
2014-Nov-23 06:07N 37°59' W 076°16'58 7.4
2014-Nov-22 22:21N 38°56' W 076°25'6 6.2
2014-Nov-22 21:22N 39°01' W 076°22'4 0.7
2014-Nov-22 15:22N 38°58' W 076°24'6 7.3
2014-Nov-22 14:30N 39°04' W 076°24'4 4.2
2014-Nov-22 13:33N 39°08' W 076°24'0 0.0
2014-Nov-22 12:06N 39°08' W 076°24'1 1.1
2014-Nov-22 11:33N 39°07' W 076°24'0 0.0
2014-Nov-22 10:30N 39°07' W 076°24'0 0.0
2014-Nov-22 09:12N 39°07' W 076°24'0 0.0
2014-Nov-22 08:33N 39°07' W 076°24'0 0.0
2014-Nov-22 07:33N 39°07' W 076°24'0 0.0
2014-Nov-22 06:33N 39°07' W 076°24'0 0.0
2014-Nov-22 05:34N 39°07' W 076°24'0 0.0
2014-Nov-22 04:34N 39°07' W 076°24'0 0.0
2014-Nov-22 03:33N 39°07' W 076°24'0 0.2
2014-Nov-22 01:31N 39°07' W 076°24'0 0.0
2014-Nov-22 00:30N 39°07' W 076°24'0 0.0
2014-Nov-21 23:10N 39°07' W 076°24'0 0.0
2014-Nov-21 19:18N 39°07' W 076°24'0 0.1
2014-Nov-21 13:27N 39°08' W 076°24'2 0.7
2014-Nov-21 11:26N 39°06' W 076°24'1 0.9
2014-Nov-21 10:12N 39°07' W 076°24'0 0.0
2014-Nov-21 06:32N 39°07' W 076°24'0 0.1
2014-Nov-21 03:15N 39°07' W 076°24'0 0.1
2014-Nov-21 00:27N 39°07' W 076°24'  

Dump ship's entire track history